Terminal Aerodrome Forecast
Issued by NWS Knoxville/Tri Cities, TN

Home | Current Version | Previous Version | Text Only | Print | Product List | Glossary On
Versions: 1 2 3 4 5 6 7 8 9 10 11 12 13 14 15 16 17 18 19 20 21 22 23 24 25 26 27 28 29 30 31 32
000
FTUS44 KMRX 291005 AAA
TAFCHA
TAF AMD
KCHA 291005Z 2910/3006 21003KT 6SM BR OVC015
     FM291400 24006KT P6SM BKN025
     FM291600 24008KT P6SM SCT040 BKN100
     FM292000 25009KT P6SM VCTS BKN040CB
     FM300200 00000KT P6SM SCT050 BKN100=

USA.gov is the U.S. government's official web portal to all federal, state and local government web resources and services.